createdAt,value
2019-04-23T00:01:49.223Z,12.60
2019-04-23T00:04:23.984Z,12.40
2019-04-23T00:09:35.476Z,12.40
2019-04-23T00:12:12.887Z,12.50
2019-04-23T00:14:56.560Z,12.70
2019-04-23T00:17:24.871Z,12.70
2019-04-23T00:19:50.344Z,12.50
2019-04-23T00:22:29.840Z,12.50
2019-04-23T00:25:34.486Z,12.40
2019-04-23T00:27:37.239Z,12.40
2019-04-23T00:30:04.369Z,12.50
2019-04-23T00:35:27.344Z,12.60
2019-04-23T00:37:39.372Z,12.60
2019-04-23T00:40:13.254Z,12.60
2019-04-23T00:42:47.408Z,12.70
2019-04-23T00:45:16.875Z,12.60
2019-04-23T00:47:51.445Z,12.80
2019-04-23T00:50:28.452Z,12.70
2019-04-23T00:52:57.702Z,12.60
2019-04-23T00:55:28.197Z,12.50
2019-04-23T00:58:08.618Z,12.60
2019-04-23T01:05:41.085Z,12.50
2019-04-23T01:13:43.869Z,11.70
2019-04-23T01:16:09.927Z,12.30
2019-04-23T01:18:58.159Z,12.40
2019-04-23T01:21:13.717Z,12.40
2019-04-23T01:24:06.424Z,12.40
2019-04-23T01:27:35.428Z,12.20
2019-04-23T01:29:52.407Z,12.00
2019-04-23T01:32:20.837Z,12.10
2019-04-23T01:35:11.350Z,12.00
2019-04-23T01:37:30.381Z,11.90
2019-04-23T01:40:10.104Z,11.90
2019-04-23T01:45:14.538Z,12.10
2019-04-23T01:50:17.327Z,12.00
2019-04-23T01:52:55.116Z,12.00
2019-04-23T01:55:24.435Z,12.10
2019-04-23T01:57:56.337Z,12.20
2019-04-23T02:00:22.468Z,12.20
2019-04-23T02:02:55.485Z,12.10
2019-04-23T02:05:32.571Z,12.00
2019-04-23T02:07:57.014Z,12.10
2019-04-23T02:13:01.874Z,12.20
2019-04-23T02:15:36.279Z,12.30
2019-04-23T02:18:11.498Z,12.20
2019-04-23T02:20:42.956Z,12.20
2019-04-23T02:23:33.209Z,12.40
2019-04-23T02:26:02.707Z,12.50
2019-04-23T02:28:32.910Z,12.40
2019-04-23T02:33:43.980Z,12.20
2019-04-23T02:36:07.886Z,12.20
2019-04-23T02:41:16.549Z,12.10
2019-04-23T02:43:59.048Z,12.30
2019-04-23T02:46:31.326Z,12.30
2019-04-23T02:48:56.325Z,12.40
2019-04-23T02:51:39.620Z,12.30
2019-04-23T02:54:15.622Z,12.40
2019-04-23T02:56:37.475Z,12.40
2019-04-23T02:59:10.247Z,12.40
2019-04-23T03:01:29.897Z,12.50
2019-04-23T03:09:23.612Z,12.30
2019-04-23T03:11:52.427Z,12.50
2019-04-23T03:19:38.385Z,12.50
2019-04-23T03:22:35.519Z,12.50
2019-04-23T03:25:17.176Z,12.30
2019-04-23T03:27:40.845Z,12.50
2019-04-23T03:30:26.478Z,12.30
2019-04-23T03:35:09.805Z,12.50
2019-04-23T03:38:00.800Z,12.40
2019-04-23T03:40:21.191Z,12.30
2019-04-23T03:43:18.943Z,12.20
2019-04-23T03:45:47.596Z,12.20
2019-04-23T03:48:06.296Z,12.20
2019-04-23T03:50:35.850Z,12.20
2019-04-23T03:53:18.450Z,12.20
2019-04-23T03:55:50.993Z,12.10
2019-04-23T03:58:21.158Z,11.90
2019-04-23T04:03:42.527Z,11.90
2019-04-23T04:06:03.403Z,11.80
2019-04-23T04:08:25.942Z,11.80
2019-04-23T04:11:09.388Z,11.80
2019-04-23T04:13:30.726Z,11.80
2019-04-23T04:16:01.345Z,11.70
2019-04-23T04:23:57.699Z,12.00
2019-04-23T04:26:32.694Z,11.70
2019-04-23T04:28:51.062Z,11.70
2019-04-23T04:31:20.929Z,11.80
2019-04-23T04:34:21.517Z,11.70
2019-04-23T04:41:40.663Z,11.90
2019-04-23T04:44:17.134Z,11.90
2019-04-23T04:46:39.065Z,11.90
2019-04-23T04:51:51.489Z,11.90
2019-04-23T04:56:42.561Z,12.00
2019-04-23T04:59:18.165Z,11.90
2019-04-23T05:04:28.517Z,12.00
2019-04-23T05:12:11.059Z,12.20
2019-04-23T05:14:43.538Z,12.30
2019-04-23T05:17:15.663Z,12.20
2019-04-23T05:24:46.654Z,12.50
2019-04-23T05:27:20.355Z,12.50
2019-04-23T05:30:06.068Z,12.70
2019-04-23T05:32:26.462Z,12.60
2019-04-23T05:34:55.795Z,12.80
2019-04-23T05:37:40.520Z,12.60
2019-04-23T05:40:08.738Z,12.70
2019-04-23T05:42:37.943Z,12.80
2019-04-23T05:45:02.142Z,13.00
2019-04-23T05:47:36.318Z,13.20
2019-04-23T05:50:18.822Z,13.00
2019-04-23T05:52:45.920Z,13.00
2019-04-23T05:55:37.825Z,13.20
2019-04-23T05:57:55.563Z,13.30
2019-04-23T06:05:34.161Z,13.20
2019-04-23T06:08:03.526Z,13.30
2019-04-23T06:10:39.552Z,13.30
2019-04-23T06:13:04.785Z,13.40
2019-04-23T06:15:36.879Z,13.30
2019-04-23T06:18:20.083Z,13.20
2019-04-23T06:20:49.280Z,13.50
2019-04-23T06:23:26.712Z,13.50
2019-04-23T06:28:21.196Z,13.30
2019-04-23T06:31:02.283Z,13.40
2019-04-23T06:33:25.766Z,13.50
2019-04-23T06:36:05.436Z,14.00
2019-04-23T06:41:09.976Z,13.80
2019-04-23T06:43:49.969Z,14.00
2019-04-23T06:46:15.058Z,14.20
2019-04-23T06:48:47.060Z,13.90
2019-04-23T06:51:27.507Z,13.80
2019-04-23T06:53:55.071Z,14.20
2019-04-23T06:56:26.839Z,13.90
2019-04-23T06:59:02.621Z,14.10
2019-04-23T07:01:27.657Z,14.20
2019-04-23T07:04:05.633Z,14.50
2019-04-23T07:06:58.110Z,14.50
2019-04-23T07:14:02.583Z,14.60
2019-04-23T07:16:48.807Z,14.60
2019-04-23T07:21:50.823Z,14.80
2019-04-23T07:24:18.163Z,14.60
2019-04-23T07:26:45.475Z,14.50
2019-04-23T07:29:26.302Z,14.80
2019-04-23T07:34:31.911Z,14.90
2019-04-23T07:40:11.421Z,14.90
2019-04-23T07:42:39.514Z,15.20
2019-04-23T07:45:25.772Z,15.00
2019-04-23T07:48:11.224Z,15.00
2019-04-23T07:50:45.614Z,14.90
2019-04-23T07:55:58.006Z,15.10
2019-04-23T07:58:23.421Z,15.30
2019-04-23T08:00:48.880Z,15.50
2019-04-23T08:05:55.318Z,15.70
2019-04-23T08:08:30.294Z,15.90
2019-04-23T08:11:30.922Z,15.90
2019-04-23T08:13:53.345Z,16.20
2019-04-23T08:16:28.161Z,16.00
2019-04-23T08:21:27.593Z,16.30
2019-04-23T08:27:04.617Z,16.40
2019-04-23T08:29:36.138Z,16.50
2019-04-23T08:32:18.997Z,16.70
2019-04-23T08:37:36.456Z,16.90
2019-04-23T08:39:52.139Z,16.80
2019-04-23T08:48:21.811Z,17.00
2019-04-23T08:50:46.691Z,17.40
2019-04-23T08:58:36.843Z,18.00
2019-04-23T09:01:05.648Z,18.20
2019-04-23T09:03:30.135Z,17.90
2019-04-23T09:06:08.040Z,18.00
2019-04-23T09:08:32.787Z,17.90
2019-04-23T09:11:19.505Z,17.80
2019-04-23T09:16:08.425Z,19.10
2019-04-23T09:18:47.332Z,18.90
2019-04-23T09:24:00.331Z,18.30
2019-04-23T09:26:33.262Z,18.20
2019-04-23T09:29:04.449Z,18.10
2019-04-23T09:34:57.038Z,18.40
2019-04-23T09:37:42.205Z,18.50
2019-04-23T09:40:39.049Z,18.20
2019-04-23T09:43:13.833Z,18.30
2019-04-23T09:46:14.562Z,18.20
2019-04-23T09:48:44.211Z,18.90
2019-04-23T09:51:21.016Z,18.50
2019-04-23T09:53:48.828Z,18.50
2019-04-23T09:56:14.515Z,18.50
2019-04-23T09:58:51.733Z,18.70
2019-04-23T10:03:50.965Z,18.90
2019-04-23T10:06:19.080Z,19.40
2019-04-23T10:08:50.031Z,19.70
2019-04-23T10:11:16.068Z,20.00
2019-04-23T10:13:48.389Z,20.00
2019-04-23T10:16:21.530Z,20.30
2019-04-23T10:18:51.168Z,20.50
2019-04-23T10:21:23.606Z,19.90
2019-04-23T10:23:55.052Z,20.50
2019-04-23T10:26:25.955Z,20.50
2019-04-23T10:29:02.461Z,20.60
2019-04-23T10:31:33.463Z,20.90
2019-04-23T10:34:04.458Z,20.60
2019-04-23T10:36:40.636Z,21.20
2019-04-23T10:39:20.776Z,20.50
2019-04-23T10:41:46.336Z,20.70
2019-04-23T10:44:35.528Z,20.70
2019-04-23T10:47:59.430Z,21.00
2019-04-23T10:50:51.185Z,20.90
2019-04-23T10:53:29.687Z,21.70
2019-04-23T10:56:18.369Z,21.40
2019-04-23T10:58:35.185Z,21.30
2019-04-23T11:01:19.341Z,22.00
2019-04-23T11:03:49.254Z,22.80
2019-04-23T11:06:17.731Z,22.60
2019-04-23T11:08:53.448Z,21.80
2019-04-23T11:11:25.548Z,21.90
2019-04-23T11:14:00.137Z,22.20
2019-04-23T11:19:11.294Z,21.30
2019-04-23T11:24:23.663Z,21.40
2019-04-23T11:26:42.390Z,21.00
2019-04-23T11:29:23.781Z,20.90
2019-04-23T11:34:34.181Z,21.00
2019-04-23T11:39:32.533Z,20.70
2019-04-23T11:47:09.503Z,21.20
2019-04-23T11:49:53.719Z,21.40
2019-04-23T11:50:46.443Z,21.00
2019-04-23T11:52:07.797Z,21.10
2019-04-23T11:54:35.540Z,21.70
2019-04-23T11:59:43.605Z,21.10
2019-04-23T12:02:40.284Z,21.40
2019-04-23T12:05:35.449Z,21.70
2019-04-23T12:14:10.463Z,22.20
2019-04-23T12:16:38.447Z,22.50
2019-04-23T12:19:32.873Z,23.00
2019-04-23T12:21:45.424Z,22.20
2019-04-23T12:26:53.881Z,22.40
2019-04-23T12:29:30.402Z,22.30
2019-04-23T12:32:32.356Z,22.30
2019-04-23T12:34:52.922Z,22.30
2019-04-23T12:37:29.300Z,21.90
2019-04-23T12:40:03.211Z,22.20
2019-04-23T12:45:09.595Z,22.40
2019-04-23T12:47:46.351Z,22.60
2019-04-23T12:50:31.042Z,22.70
2019-04-23T12:57:42.441Z,22.80
2019-04-23T13:00:19.574Z,22.90
2019-04-23T13:02:55.539Z,22.90
2019-04-23T13:05:15.827Z,22.80
2019-04-23T13:07:52.046Z,23.30
2019-04-23T13:10:30.270Z,23.00
2019-04-23T13:15:33.425Z,22.50
2019-04-23T13:18:03.016Z,22.10
2019-04-23T13:20:33.877Z,22.00
2019-04-23T13:23:19.816Z,22.30
2019-04-23T13:28:28.069Z,23.00
2019-04-23T13:38:38.270Z,23.40
2019-04-23T13:43:40.541Z,23.30
2019-04-23T13:46:13.848Z,23.60
2019-04-23T13:48:52.509Z,23.40
2019-04-23T13:51:20.814Z,23.40
2019-04-23T13:53:53.383Z,23.70
2019-04-23T13:56:31.587Z,23.50
2019-04-23T13:58:59.920Z,23.40
2019-04-23T14:01:28.864Z,23.60
2019-04-23T14:04:04.745Z,24.00
2019-04-23T14:06:36.478Z,23.70
2019-04-23T14:09:14.628Z,23.60
2019-04-23T14:11:34.698Z,23.30
2019-04-23T14:14:25.257Z,23.40
2019-04-23T14:19:21.459Z,23.90
2019-04-23T14:22:13.723Z,24.10
2019-04-23T14:24:32.374Z,24.20
2019-04-23T14:26:59.187Z,24.00
2019-04-23T14:29:38.463Z,23.60
2019-04-23T14:32:10.489Z,23.40
2019-04-23T14:34:46.321Z,23.50
2019-04-23T14:37:12.133Z,23.90
2019-04-23T14:42:26.516Z,23.80
2019-04-23T14:45:08.089Z,23.80
2019-04-23T14:50:24.060Z,23.80
2019-04-23T14:52:50.382Z,23.90
2019-04-23T14:55:41.775Z,24.00
2019-04-23T14:57:52.795Z,24.40
2019-04-23T15:00:18.604Z,24.20
2019-04-23T15:02:52.108Z,24.40
2019-04-23T15:05:27.988Z,24.40
2019-04-23T15:07:52.144Z,24.00
2019-04-23T15:13:00.015Z,24.00
2019-04-23T15:15:35.630Z,23.30
2019-04-23T15:18:14.175Z,24.00
2019-04-23T15:21:15.748Z,24.40
2019-04-23T15:23:41.802Z,24.70
2019-04-23T15:26:57.177Z,24.60
2019-04-23T15:28:09.029Z,24.10
2019-04-23T15:31:09.598Z,24.20
2019-04-23T15:33:51.870Z,24.30
2019-04-23T15:41:24.971Z,23.90
2019-04-23T15:43:57.766Z,23.80
2019-04-23T15:46:26.800Z,23.80
2019-04-23T15:49:07.688Z,24.00
2019-04-23T15:54:02.580Z,24.10
2019-04-23T15:56:45.189Z,23.90
2019-04-23T16:03:45.059Z,24.50
2019-04-23T16:06:21.459Z,24.60
2019-04-23T16:17:04.921Z,25.10
2019-04-23T16:19:29.125Z,25.60
2019-04-23T16:22:12.995Z,24.80
2019-04-23T16:24:37.804Z,25.00
2019-04-23T16:27:11.093Z,24.90
2019-04-23T16:30:10.793Z,24.60
2019-04-23T16:32:31.356Z,24.40
2019-04-23T16:35:03.261Z,24.20
2019-04-23T16:37:29.297Z,24.50
2019-04-23T16:40:04.507Z,25.00
2019-04-23T16:42:38.392Z,24.60
2019-04-23T16:47:36.884Z,24.60
2019-04-23T16:50:13.128Z,24.50
2019-04-23T16:52:43.898Z,24.70
2019-04-23T16:55:29.450Z,24.70
2019-04-23T17:02:56.071Z,24.20
2019-04-23T17:05:24.924Z,24.10
2019-04-23T17:08:24.847Z,24.20
2019-04-23T17:10:38.816Z,24.20
2019-04-23T17:13:05.058Z,24.40
2019-04-23T17:15:46.413Z,24.50
2019-04-23T17:18:11.950Z,24.50
2019-04-23T17:20:46.779Z,24.70
2019-04-23T17:23:25.567Z,24.60
2019-04-23T17:25:51.875Z,24.50
2019-04-23T17:28:21.973Z,24.50
2019-04-23T17:31:19.245Z,24.50
2019-04-23T17:33:38.301Z,24.60
2019-04-23T17:36:28.391Z,24.40
2019-04-23T17:42:08.283Z,24.20
2019-04-23T17:47:14.061Z,23.80
2019-04-23T17:49:51.085Z,23.90
2019-04-23T17:52:21.896Z,23.80
2019-04-23T17:57:26.317Z,24.10
2019-04-23T18:00:11.469Z,24.30
2019-04-23T18:02:55.605Z,24.40
2019-04-23T18:05:08.214Z,24.40
2019-04-23T18:07:44.000Z,24.40
2019-04-23T18:10:17.556Z,24.30
2019-04-23T18:15:35.123Z,24.30
2019-04-23T18:17:54.747Z,24.20
2019-04-23T18:20:44.167Z,24.20
2019-04-23T18:23:15.164Z,24.10
2019-04-23T18:26:05.419Z,24.00
2019-04-23T18:28:37.635Z,24.00
2019-04-23T18:36:37.144Z,23.70
2019-04-23T18:39:26.314Z,23.60
2019-04-23T18:41:57.941Z,23.60
2019-04-23T18:44:31.830Z,23.40
2019-04-23T18:47:00.429Z,23.50
2019-04-23T18:49:36.638Z,23.40
2019-04-23T18:51:58.218Z,23.20
2019-04-23T18:54:28.418Z,23.10
2019-04-23T18:57:09.841Z,23.00
2019-04-23T19:00:07.480Z,22.70
2019-04-23T19:02:35.436Z,22.50
2019-04-23T19:05:07.233Z,22.40
2019-04-23T19:10:30.487Z,21.80
2019-04-23T19:13:12.628Z,21.80
2019-04-23T19:15:45.905Z,21.80
2019-04-23T19:18:12.552Z,21.80
2019-04-23T19:23:35.192Z,21.90
2019-04-23T19:25:48.270Z,21.50
2019-04-23T19:31:31.365Z,21.30
2019-04-23T19:41:55.422Z,21.40
2019-04-23T19:44:27.901Z,21.40
2019-04-23T19:49:28.850Z,21.40
2019-04-23T19:51:58.514Z,21.40
2019-04-23T19:54:34.008Z,21.10
2019-04-23T20:02:09.579Z,20.90
2019-04-23T20:14:48.810Z,20.40
2019-04-23T20:19:48.215Z,20.10
2019-04-23T20:25:10.012Z,20.40
2019-04-23T20:27:25.967Z,20.50
2019-04-23T20:30:51.004Z,20.70
2019-04-23T20:33:27.924Z,20.80
2019-04-23T20:35:24.246Z,20.70
2019-04-23T20:43:05.713Z,19.80
2019-04-23T20:45:39.628Z,19.70
2019-04-23T20:48:04.796Z,19.80
2019-04-23T20:50:41.028Z,20.00
2019-04-23T20:53:09.234Z,19.80
2019-04-23T20:56:04.877Z,19.50
2019-04-23T21:01:22.344Z,19.50
2019-04-23T21:03:49.140Z,19.20
2019-04-23T21:06:18.882Z,19.10
2019-04-23T21:09:14.909Z,19.10
2019-04-23T21:11:29.073Z,19.00
2019-04-23T21:14:12.459Z,19.00
2019-04-23T21:16:32.763Z,19.20
2019-04-23T21:18:55.606Z,18.90
2019-04-23T21:21:33.832Z,18.60
2019-04-23T21:24:01.325Z,18.50
2019-04-23T21:26:46.057Z,18.70
2019-04-23T21:29:07.443Z,18.80
2019-04-23T21:32:09.314Z,18.60
2019-04-23T21:34:21.572Z,18.30
2019-04-23T21:36:50.942Z,18.30
2019-04-23T21:39:40.757Z,18.30
2019-04-23T21:42:14.089Z,18.30
2019-04-23T21:44:41.974Z,18.30
2019-04-23T21:47:40.294Z,18.10
2019-04-23T21:50:03.159Z,18.10
2019-04-23T21:52:17.944Z,18.00
2019-04-23T21:54:58.760Z,18.20
2019-04-23T21:57:24.468Z,18.30
2019-04-23T21:59:55.818Z,18.50
2019-04-23T22:02:28.587Z,18.20
2019-04-23T22:05:01.191Z,18.10
2019-04-23T22:07:50.131Z,18.10
2019-04-23T22:10:15.718Z,17.90
2019-04-23T22:12:46.809Z,17.60
2019-04-23T22:15:04.756Z,17.50
2019-04-23T22:17:46.289Z,17.40
2019-04-23T22:20:17.690Z,17.40
2019-04-23T22:22:57.197Z,17.60
2019-04-23T22:25:13.123Z,17.80
2019-04-23T22:27:54.783Z,18.10
2019-04-23T22:30:31.468Z,18.10
2019-04-23T22:33:04.024Z,18.00
2019-04-23T22:35:30.501Z,18.20
2019-04-23T22:38:18.783Z,18.10
2019-04-23T22:40:37.406Z,18.10
2019-04-23T22:43:14.737Z,18.10
2019-04-23T22:45:44.427Z,18.20
2019-04-23T22:48:18.020Z,18.00
2019-04-23T22:50:59.344Z,18.10
2019-04-23T22:55:57.675Z,18.30
2019-04-23T22:58:27.640Z,18.20
2019-04-23T23:03:51.182Z,18.20
2019-04-23T23:06:23.085Z,18.20
2019-04-23T23:08:59.879Z,18.10
2019-04-23T23:11:14.146Z,18.20
2019-04-23T23:14:09.663Z,18.20
2019-04-23T23:16:28.382Z,18.30
2019-04-23T23:19:03.957Z,18.30
2019-04-23T23:21:38.143Z,18.30
2019-04-23T23:26:42.185Z,18.50
2019-04-23T23:29:06.358Z,18.60
2019-04-23T23:31:43.929Z,18.60
2019-04-23T23:39:25.056Z,18.70
2019-04-23T23:44:54.542Z,18.40
2019-04-23T23:47:03.102Z,17.90
2019-04-23T23:49:27.819Z,18.00
2019-04-23T23:51:58.295Z,18.20
2019-04-23T23:54:26.618Z,18.30
